Time;durP1;ratioP1;P1;durP2;ratioP2;P2;SDS_P1;SDS_P2;PMS_P1;PMS_P2;Temp;Humidity;BMP_temperature;BMP_pressure;BME280_temperature;BME280_humidity;BME280_pressure;Samples;Min_cycle;Max_cycle;Signal;HPM_P1;HPM_P2
2024/01/27 00:01:32;;;;;;;5.90;2.50;;;3.80;99.90;;;;;;4973919;28;20431;-68
2024/01/27 00:03:57;;;;;;;3.67;2.57;;;3.80;99.90;;;;;;4962279;28;20428;-68
2024/01/27 00:06:23;;;;;;;6.70;2.40;;;3.80;99.90;;;;;;4954059;29;20197;-68
2024/01/27 00:08:48;;;;;;;4.80;2.50;;;3.80;99.90;;;;;;4953954;28;20559;-68
2024/01/27 00:11:14;;;;;;;6.83;2.53;;;3.70;99.90;;;;;;4954418;29;20180;-68
2024/01/27 00:13:39;;;;;;;2.50;2.23;;;3.70;99.90;;;;;;4954336;29;20527;-68
2024/01/27 00:16:05;;;;;;;3.90;2.90;;;3.70;99.90;;;;;;4954165;28;20189;-68
2024/01/27 00:18:31;;;;;;;3.10;2.80;;;3.70;99.90;;;;;;4954126;29;20179;-68
2024/01/27 00:20:56;;;;;;;4.53;3.10;;;3.60;99.90;;;;;;4954707;28;20546;-68
2024/01/27 00:23:22;;;;;;;9.13;3.37;;;3.70;99.90;;;;;;4954160;29;20177;-67
2024/01/27 00:25:47;;;;;;;3.97;3.50;;;3.60;99.90;;;;;;4969006;28;20231;-68
2024/01/27 00:28:13;;;;;;;5.57;3.47;;;3.60;99.90;;;;;;4970648;28;20235;-68
2024/01/27 00:30:38;;;;;;;2.93;2.73;;;3.50;99.90;;;;;;4972457;28;20296;-68
2024/01/27 00:33:04;;;;;;;5.50;4.03;;;3.50;99.90;;;;;;4967449;28;20176;-68
2024/01/27 00:35:30;;;;;;;5.00;3.60;;;3.50;99.90;;;;;;4973198;28;20644;-68
2024/01/27 00:37:56;;;;;;;5.27;3.60;;;3.50;99.90;;;;;;4969956;28;20195;-67
2024/01/27 00:40:22;;;;;;;6.33;3.53;;;3.40;99.90;;;;;;4972958;28;20172;-68
2024/01/27 00:42:48;;;;;;;4.30;3.33;;;3.40;99.90;;;;;;4973240;28;20428;-68
2024/01/27 00:45:13;;;;;;;11.03;3.40;;;3.40;99.90;;;;;;4973075;28;20689;-68
2024/01/27 00:47:39;;;;;;;3.27;3.07;;;3.40;99.90;;;;;;4972884;28;20728;-68
2024/01/27 00:50:05;;;;;;;7.23;3.63;;;3.30;99.90;;;;;;4973249;28;20172;-68
2024/01/27 00:52:31;;;;;;;7.70;3.37;;;3.30;99.90;;;;;;4973457;28;20168;-68
2024/01/27 00:54:56;;;;;;;7.03;2.83;;;3.30;99.90;;;;;;4961520;28;20463;-68
2024/01/27 00:57:22;;;;;;;5.43;2.53;;;3.30;99.90;;;;;;4963315;28;20184;-67
2024/01/27 00:59:47;;;;;;;4.40;2.73;;;3.30;99.90;;;;;;4973111;28;20180;-68
2024/01/27 01:02:13;;;;;;;7.10;2.90;;;3.20;99.90;;;;;;4973275;28;20180;-68
2024/01/27 01:04:38;;;;;;;3.20;2.90;;;3.20;99.90;;;;;;4972954;28;20223;-68
2024/01/27 01:07:04;;;;;;;4.23;3.00;;;3.20;99.90;;;;;;4972672;28;20204;-68
2024/01/27 01:09:29;;;;;;;4.13;2.90;;;3.20;99.90;;;;;;4973110;28;20176;-68
2024/01/27 01:11:55;;;;;;;7.47;3.50;;;3.10;99.90;;;;;;4961679;28;20196;-68
2024/01/27 01:14:20;;;;;;;4.53;3.33;;;3.10;99.90;;;;;;4953619;29;20646;-68
2024/01/27 01:16:46;;;;;;;4.57;3.53;;;3.10;99.90;;;;;;4953487;29;20166;-68
2024/01/27 01:19:11;;;;;;;3.93;2.63;;;3.10;99.90;;;;;;4953581;28;20662;-68
2024/01/27 01:21:37;;;;;;;6.03;3.03;;;3.10;99.90;;;;;;4957283;29;20634;-68
2024/01/27 01:24:03;;;;;;;5.23;2.97;;;3.10;99.90;;;;;;4957359;29;20545;-68
2024/01/27 01:26:28;;;;;;;5.13;2.67;;;3.00;99.90;;;;;;4957392;29;20217;-68
2024/01/27 01:28:54;;;;;;;4.93;2.90;;;3.00;99.90;;;;;;4957891;28;20204;-68
2024/01/27 01:31:19;;;;;;;7.40;3.30;;;3.00;99.90;;;;;;4957189;29;20177;-69
2024/01/27 01:33:45;;;;;;;5.23;2.70;;;2.90;99.90;;;;;;4965548;28;20234;-68
2024/01/27 01:36:10;;;;;;;3.83;2.70;;;2.90;99.90;;;;;;4976834;28;20555;-68
2024/01/27 01:38:36;;;;;;;5.50;3.00;;;2.90;99.90;;;;;;4976217;28;20184;-68
2024/01/27 01:41:01;;;;;;;4.90;2.97;;;2.90;99.90;;;;;;4974628;28;20180;-68
2024/01/27 01:43:27;;;;;;;2.47;2.07;;;2.90;99.90;;;;;;4975181;28;20725;-68
2024/01/27 01:45:55;;;;;;;7.40;2.80;;;2.90;99.90;;;;;;4975429;28;20204;-68
2024/01/27 01:48:21;;;;;;;10.20;4.20;;;2.90;99.90;;;;;;4975823;28;20211;-68
2024/01/27 01:50:47;;;;;;;4.10;2.90;;;2.90;99.90;;;;;;4976123;28;20815;-69
2024/01/27 01:53:13;;;;;;;5.07;2.33;;;2.80;99.90;;;;;;4976116;28;20164;-69
2024/01/27 01:55:39;;;;;;;4.60;3.40;;;2.80;99.90;;;;;;4976016;28;20435;-69
2024/01/27 01:58:05;;;;;;;6.97;5.00;;;2.70;99.90;;;;;;4975829;28;20455;-69
2024/01/27 02:00:31;;;;;;;5.20;3.17;;;2.70;99.90;;;;;;4975968;28;20419;-69
2024/01/27 02:02:57;;;;;;;5.27;3.20;;;2.60;99.90;;;;;;4963934;28;20424;-69
2024/01/27 02:05:23;;;;;;;5.93;2.17;;;2.60;99.90;;;;;;4956534;29;20800;-68
2024/01/27 02:07:48;;;;;;;6.83;3.17;;;2.60;99.90;;;;;;4956294;28;20212;-68
2024/01/27 02:10:16;;;;;;;3.67;3.20;;;2.60;99.90;;;;;;4960406;28;20544;-70
2024/01/27 02:12:42;;;;;;;5.03;3.30;;;2.60;99.90;;;;;;4978334;28;20712;-67
2024/01/27 02:15:12;;;;;;;4.47;2.40;;;2.70;99.90;;;;;;4975324;28;20661;-68
2024/01/27 02:17:38;;;;;;;10.73;2.77;;;2.60;99.90;;;;;;4975271;28;20424;-68
2024/01/27 02:20:06;;;;;;;2.60;2.40;;;2.60;99.90;;;;;;4963210;28;20480;-68
2024/01/27 02:22:33;;;;;;;4.67;2.57;;;2.60;99.90;;;;;;4956278;28;20973;-69
2024/01/27 02:24:58;;;;;;;5.13;2.50;;;2.50;99.90;;;;;;4956217;28;20527;-69
2024/01/27 02:27:24;;;;;;;5.53;3.30;;;2.50;99.90;;;;;;4955844;29;20543;-68
2024/01/27 02:29:49;;;;;;;5.33;2.47;;;2.50;99.90;;;;;;4956116;28;20178;-68
2024/01/27 02:32:15;;;;;;;2.90;2.40;;;2.40;99.90;;;;;;4955883;28;20173;-69
2024/01/27 02:34:41;;;;;;;5.40;3.03;;;2.40;99.90;;;;;;4956194;29;20201;-69
2024/01/27 02:37:06;;;;;;;4.57;3.40;;;2.40;99.90;;;;;;4956295;28;20437;-67
2024/01/27 02:39:32;;;;;;;6.53;2.83;;;2.40;99.90;;;;;;4974735;28;20176;-68
2024/01/27 02:41:57;;;;;;;5.20;4.67;;;2.40;99.90;;;;;;4975376;28;20642;-69
2024/01/27 02:44:23;;;;;;;13.30;6.53;;;2.40;99.90;;;;;;4975127;28;20771;-69
2024/01/27 02:46:48;;;;;;;4.17;3.13;;;2.30;99.90;;;;;;4974734;28;20259;-68
2024/01/27 02:49:14;;;;;;;3.77;2.70;;;2.30;99.90;;;;;;4973318;28;20196;-68
2024/01/27 02:51:39;;;;;;;8.80;3.33;;;2.30;99.90;;;;;;4974991;28;20173;-67
2024/01/27 02:54:05;;;;;;;5.90;3.37;;;2.30;99.90;;;;;;4962235;28;20558;-69
2024/01/27 02:56:30;;;;;;;3.53;2.33;;;2.30;99.90;;;;;;4974606;28;20244;-67
2024/01/27 02:58:56;;;;;;;7.30;4.33;;;2.30;99.90;;;;;;4974922;28;20172;-68
2024/01/27 03:01:21;;;;;;;7.77;3.07;;;2.30;99.90;;;;;;4974792;28;20642;-69
2024/01/27 03:03:47;;;;;;;7.10;3.60;;;2.30;99.90;;;;;;4974818;28;20176;-68
2024/01/27 03:06:12;;;;;;;3.90;3.10;;;2.30;99.90;;;;;;4974652;28;20200;-69
2024/01/27 03:08:38;;;;;;;5.93;2.83;;;2.30;99.90;;;;;;4974384;28;20694;-68
2024/01/27 03:11:04;;;;;;;6.40;3.07;;;2.20;99.90;;;;;;4962513;28;20181;-67
2024/01/27 03:13:29;;;;;;;4.70;3.40;;;2.20;99.90;;;;;;4955393;28;20538;-68
2024/01/27 03:15:55;;;;;;;5.70;3.10;;;2.20;99.90;;;;;;4955197;29;20520;-68
2024/01/27 03:18:21;;;;;;;5.63;3.37;;;2.20;99.90;;;;;;4954983;29;20178;-69
2024/01/27 03:20:47;;;;;;;4.00;2.50;;;2.20;99.90;;;;;;4955308;28;20475;-68
2024/01/27 03:23:12;;;;;;;6.27;2.70;;;2.20;99.90;;;;;;4955243;28;20180;-67
2024/01/27 03:25:38;;;;;;;4.33;2.73;;;2.20;99.90;;;;;;4955007;29;20456;-68
2024/01/27 03:28:04;;;;;;;7.40;4.07;;;2.20;99.90;;;;;;4955355;28;20204;-68
2024/01/27 03:30:29;;;;;;;5.63;3.40;;;2.20;99.90;;;;;;4954984;29;20188;-68
2024/01/27 03:32:55;;;;;;;4.30;2.80;;;2.10;99.90;;;;;;4955214;28;20235;-68
2024/01/27 03:35:20;;;;;;;7.67;3.20;;;2.10;99.90;;;;;;4954937;29;20197;-68
2024/01/27 03:37:46;;;;;;;4.53;3.07;;;2.10;99.90;;;;;;4954694;29;20211;-68
2024/01/27 03:40:12;;;;;;;7.60;3.20;;;2.00;99.90;;;;;;4954909;28;20207;-68
2024/01/27 03:42:37;;;;;;;6.43;3.13;;;2.00;99.90;;;;;;4954240;28;20185;-67
2024/01/27 03:45:03;;;;;;;4.07;3.70;;;2.00;99.90;;;;;;4960388;28;20232;-69
2024/01/27 03:47:28;;;;;;;8.80;3.47;;;2.00;99.90;;;;;;4954613;28;20205;-68
2024/01/27 03:49:54;;;;;;;6.93;3.90;;;1.90;99.90;;;;;;4958422;28;20184;-68
2024/01/27 03:52:19;;;;;;;5.30;2.90;;;1.90;99.90;;;;;;4972962;28;20235;-69
2024/01/27 03:54:45;;;;;;;10.50;3.00;;;1.90;99.90;;;;;;4973712;28;20437;-68
2024/01/27 03:57:11;;;;;;;9.20;3.57;;;1.90;99.90;;;;;;4973566;28;20176;-67
2024/01/27 03:59:36;;;;;;;6.77;2.90;;;1.90;99.90;;;;;;4973677;28;20549;-69
2024/01/27 04:02:02;;;;;;;4.60;3.20;;;1.90;99.90;;;;;;4961594;28;20185;-68
2024/01/27 04:04:27;;;;;;;13.10;4.67;;;1.80;99.90;;;;;;4954352;29;20188;-68
2024/01/27 04:06:53;;;;;;;6.40;3.20;;;1.80;99.90;;;;;;4954088;28;20264;-69
2024/01/27 04:09:18;;;;;;;6.47;3.53;;;1.80;99.90;;;;;;4954372;28;20169;-69
2024/01/27 04:11:44;;;;;;;6.50;3.17;;;1.80;99.90;;;;;;4971663;28;20180;-69
2024/01/27 04:14:09;;;;;;;3.73;3.30;;;1.80;99.90;;;;;;4973666;28;20185;-68
2024/01/27 04:16:35;;;;;;;5.07;3.40;;;1.80;99.90;;;;;;4973241;28;20304;-67
2024/01/27 04:19:00;;;;;;;6.27;3.47;;;1.80;99.90;;;;;;4961321;28;20192;-69
2024/01/27 04:21:26;;;;;;;6.03;2.87;;;1.80;99.90;;;;;;4954353;28;20665;-69
2024/01/27 04:23:51;;;;;;;9.20;3.90;;;1.80;99.90;;;;;;4954286;28;20188;-68
2024/01/27 04:26:17;;;;;;;4.40;3.10;;;1.80;99.90;;;;;;4953995;28;20212;-68
2024/01/27 04:28:42;;;;;;;7.33;3.80;;;1.70;99.90;;;;;;4953971;28;20288;-68
2024/01/27 04:31:08;;;;;;;5.93;3.23;;;1.70;99.90;;;;;;4954165;29;20562;-68
2024/01/27 04:33:33;;;;;;;7.20;4.00;;;1.70;99.90;;;;;;4954230;28;20215;-68
2024/01/27 04:35:59;;;;;;;6.70;3.30;;;1.70;99.90;;;;;;4954607;28;20756;-68
2024/01/27 04:38:25;;;;;;;5.87;4.00;;;1.60;99.90;;;;;;4954010;28;20177;-68
2024/01/27 04:40:51;;;;;;;3.30;3.00;;;1.70;99.90;;;;;;4954092;28;20231;-68
2024/01/27 04:43:18;;;;;;;4.73;3.00;;;1.70;99.90;;;;;;4954100;28;20219;-68
2024/01/27 04:45:43;;;;;;;10.00;4.23;;;1.70;99.90;;;;;;4953921;28;20444;-68
2024/01/27 04:48:09;;;;;;;3.60;3.30;;;1.70;99.90;;;;;;4970132;28;21026;-68
2024/01/27 04:50:34;;;;;;;7.97;3.70;;;1.60;99.90;;;;;;4973221;28;20172;-68
2024/01/27 04:53:00;;;;;;;7.53;3.30;;;1.60;99.90;;;;;;4961131;28;20208;-67
2024/01/27 04:55:26;;;;;;;7.03;3.33;;;1.60;99.90;;;;;;4955747;28;20251;-68
2024/01/27 04:57:52;;;;;;;7.23;3.80;;;1.50;99.90;;;;;;4957440;29;20432;-68
2024/01/27 05:00:17;;;;;;;16.10;4.83;;;1.50;99.90;;;;;;4957777;28;20176;-68
2024/01/27 05:02:43;;;;;;;4.10;3.63;;;1.50;99.90;;;;;;4957754;29;20165;-68
2024/01/27 05:05:09;;;;;;;6.50;3.30;;;1.50;99.90;;;;;;4957714;29;20670;-68
2024/01/27 05:07:34;;;;;;;4.60;3.60;;;1.50;99.90;;;;;;4957350;28;20276;-69
2024/01/27 05:10:00;;;;;;;4.00;3.20;;;1.50;99.90;;;;;;4958173;28;20191;-68
2024/01/27 05:12:26;;;;;;;5.73;3.60;;;1.50;99.90;;;;;;4957633;28;20170;-68
2024/01/27 05:14:51;;;;;;;11.20;4.40;;;1.50;99.90;;;;;;4957633;29;20448;-68
2024/01/27 05:17:17;;;;;;;4.63;4.20;;;1.40;99.90;;;;;;4957251;28;20184;-68
2024/01/27 05:19:43;;;;;;;5.00;3.20;;;1.40;99.90;;;;;;4957572;29;20626;-68
2024/01/27 05:22:09;;;;;;;6.47;4.30;;;1.30;99.90;;;;;;4957542;29;20544;-68
2024/01/27 05:24:34;;;;;;;3.97;3.30;;;1.30;99.90;;;;;;4957464;29;20524;-68
2024/01/27 05:27:00;;;;;;;6.53;4.13;;;1.30;99.90;;;;;;4957383;28;20240;-70
2024/01/27 05:29:28;;;;;;;4.60;3.67;;;1.20;99.90;;;;;;4957287;29;20749;-67
2024/01/27 05:31:54;;;;;;;7.67;3.83;;;1.20;99.90;;;;;;4957345;29;20169;-67
2024/01/27 05:34:20;;;;;;;7.67;4.17;;;1.20;99.90;;;;;;4957243;28;20459;-68
2024/01/27 05:36:47;;;;;;;8.00;3.90;;;1.20;99.90;;;;;;4956854;29;20192;-68
2024/01/27 05:39:12;;;;;;;12.70;3.93;;;1.20;99.90;;;;;;4957062;29;20421;-68
2024/01/27 05:41:38;;;;;;;8.23;3.30;;;1.30;99.90;;;;;;4957062;29;20909;-68
2024/01/27 05:44:03;;;;;;;6.23;4.20;;;1.30;99.90;;;;;;4957492;28;20715;-69
2024/01/27 05:46:29;;;;;;;5.53;3.63;;;1.30;99.90;;;;;;4959859;28;20192;-68
2024/01/27 05:48:57;;;;;;;7.43;3.97;;;1.30;99.90;;;;;;4976147;28;20240;-68
2024/01/27 05:51:23;;;;;;;7.00;3.90;;;1.30;99.90;;;;;;4976248;28;20164;-67
2024/01/27 05:53:49;;;;;;;8.03;4.83;;;1.30;99.90;;;;;;4976111;28;20503;-68
2024/01/27 05:56:16;;;;;;;8.53;4.20;;;1.30;99.90;;;;;;4975962;28;20282;-68
2024/01/27 05:58:42;;;;;;;9.40;5.20;;;1.30;99.90;;;;;;4975881;28;21000;-68
2024/01/27 06:01:09;;;;;;;8.80;4.30;;;1.30;99.90;;;;;;4962938;28;20469;-67
2024/01/27 06:03:35;;;;;;;11.73;4.60;;;1.20;99.90;;;;;;4956756;29;20173;-68
2024/01/27 06:06:01;;;;;;;7.73;3.63;;;1.20;99.90;;;;;;4956004;28;20508;-68
2024/01/27 06:08:26;;;;;;;5.57;3.73;;;1.10;99.90;;;;;;4956483;28;20456;-68
2024/01/27 06:10:52;;;;;;;5.17;3.67;;;1.10;99.90;;;;;;4956498;29;20228;-68
2024/01/27 06:13:18;;;;;;;7.13;3.93;;;1.00;99.90;;;;;;4956528;28;20590;-69
2024/01/27 06:15:43;;;;;;;5.10;4.30;;;1.00;99.90;;;;;;4956551;29;20199;-68
2024/01/27 06:18:09;;;;;;;9.13;4.90;;;1.10;99.90;;;;;;4956660;28;20687;-68
2024/01/27 06:20:34;;;;;;;5.67;4.57;;;1.10;99.90;;;;;;4956365;28;20192;-69
2024/01/27 06:23:00;;;;;;;8.63;5.10;;;1.10;99.90;;;;;;4956335;29;20260;-68
2024/01/27 06:25:25;;;;;;;9.17;5.13;;;1.10;99.90;;;;;;4956039;29;20236;-67
2024/01/27 06:27:51;;;;;;;5.47;4.20;;;1.10;99.90;;;;;;4956024;28;20352;-68
2024/01/27 06:30:17;;;;;;;5.23;4.07;;;1.00;99.90;;;;;;4956311;28;20170;-68
2024/01/27 06:32:43;;;;;;;7.60;3.83;;;1.00;99.90;;;;;;4956162;28;20252;-68
2024/01/27 06:35:08;;;;;;;5.13;4.57;;;1.00;99.90;;;;;;4956601;28;20547;-68
2024/01/27 06:37:35;;;;;;;5.40;4.63;;;0.90;99.90;;;;;;4955813;29;20185;-68
2024/01/27 06:40:00;;;;;;;12.00;5.23;;;0.90;99.90;;;;;;4956105;29;20169;-68
2024/01/27 06:42:26;;;;;;;5.03;3.87;;;0.90;99.90;;;;;;4956077;29;20420;-68
2024/01/27 06:44:51;;;;;;;7.60;4.57;;;0.90;99.90;;;;;;4955972;28;20219;-69
2024/01/27 06:47:17;;;;;;;7.03;4.07;;;0.90;99.90;;;;;;4965162;28;20660;-69
2024/01/27 06:49:42;;;;;;;10.70;5.63;;;0.90;99.90;;;;;;4975131;28;20184;-69
2024/01/27 06:52:08;;;;;;;8.10;5.40;;;0.90;99.90;;;;;;4962142;28;20546;-68
2024/01/27 06:54:33;;;;;;;16.17;7.97;;;0.90;99.90;;;;;;4955732;29;20173;-69
2024/01/27 06:57:00;;;;;;;17.90;7.53;;;0.90;99.90;;;;;;4955386;29;20202;-68
2024/01/27 06:59:26;;;;;;;11.63;4.87;;;0.90;99.90;;;;;;4955693;28;20179;-69
2024/01/27 07:01:51;;;;;;;6.33;4.40;;;0.90;99.90;;;;;;4955723;29;20497;-68
2024/01/27 07:04:17;;;;;;;7.40;5.13;;;0.90;99.90;;;;;;4955511;29;20829;-68
2024/01/27 07:06:43;;;;;;;9.83;4.67;;;0.90;99.90;;;;;;4955290;28;20208;-68
2024/01/27 07:09:09;;;;;;;10.53;4.30;;;1.00;99.90;;;;;;4955871;28;20484;-68
2024/01/27 07:11:36;;;;;;;8.80;4.73;;;1.00;99.90;;;;;;4955579;29;20468;-68
2024/01/27 07:14:02;;;;;;;10.40;5.37;;;1.00;99.90;;;;;;4955505;29;20177;-69
2024/01/27 07:16:28;;;;;;;7.07;5.13;;;1.10;99.90;;;;;;4955111;28;20821;-69
2024/01/27 07:18:54;;;;;;;12.93;4.50;;;1.10;99.90;;;;;;4954395;29;20479;-68
2024/01/27 07:21:19;;;;;;;15.87;5.00;;;1.10;99.90;;;;;;4955218;29;20177;-68
2024/01/27 07:23:45;;;;;;;7.03;4.93;;;1.10;99.90;;;;;;4955235;29;20305;-68
2024/01/27 07:26:11;;;;;;;7.40;4.30;;;1.10;99.90;;;;;;4955949;28;20216;-68
2024/01/27 07:28:37;;;;;;;9.67;5.47;;;1.20;99.90;;;;;;4954759;28;20643;-67
2024/01/27 07:31:03;;;;;;;9.03;5.00;;;1.30;99.90;;;;;;4955128;28;20491;-67
2024/01/27 07:33:29;;;;;;;8.40;5.43;;;1.40;99.90;;;;;;4954957;29;20479;-68
2024/01/27 07:35:54;;;;;;;8.23;5.17;;;1.50;99.90;;;;;;4954831;29;20448;-67
2024/01/27 07:38:20;;;;;;;7.93;4.47;;;1.70;99.90;;;;;;4954614;29;20259;-68
2024/01/27 07:40:45;;;;;;;10.90;8.50;;;2.00;99.90;;;;;;4954815;29;20173;-68
2024/01/27 07:43:11;;;;;;;9.80;7.40;;;2.30;99.90;;;;;;4955457;28;20185;-68
2024/01/27 07:45:36;;;;;;;8.53;5.60;;;2.80;99.90;;;;;;4954794;28;20197;-68
2024/01/27 07:48:03;;;;;;;5.63;4.20;;;3.50;99.90;;;;;;4969982;28;20196;-68
2024/01/27 07:50:28;;;;;;;17.97;10.33;;;4.10;99.90;;;;;;4973980;28;20247;-68
2024/01/27 07:52:54;;;;;;;12.80;8.47;;;4.50;99.90;;;;;;4974004;28;20845;-68
2024/01/27 07:55:19;;;;;;;11.20;7.30;;;5.20;99.90;;;;;;4973835;28;20263;-68
2024/01/27 07:57:45;;;;;;;7.33;5.10;;;6.00;94.40;;;;;;4973517;28;20192;-68
2024/01/27 08:00:11;;;;;;;9.97;5.00;;;6.60;69.30;;;;;;4972289;28;20303;-68
2024/01/27 08:02:36;;;;;;;8.40;5.63;;;7.00;42.50;;;;;;4973708;28;20544;-68
2024/01/27 08:05:03;;;;;;;10.10;5.73;;;7.40;29.30;;;;;;4964094;28;20456;-68
2024/01/27 08:07:29;;;;;;;7.80;4.93;;;7.90;16.30;;;;;;4968875;28;20196;-68
2024/01/27 08:09:56;;;;;;;8.93;5.60;;;8.40;1.00;;;;;;4965871;28;20590;-68
2024/01/27 08:12:22;;;;;;;6.43;5.80;;;9.00;1.00;;;;;;4965053;28;20667;-68
2024/01/27 08:14:47;;;;;;;9.13;5.57;;;9.80;1.00;;;;;;4971716;28;20493;-69
2024/01/27 08:17:13;;;;;;;8.37;7.40;;;10.20;1.00;;;;;;4959325;28;20207;-69
2024/01/27 08:19:39;;;;;;;5.70;5.20;;;10.90;1.00;;;;;;4963785;28;20254;-69
2024/01/27 08:22:04;;;;;;;7.00;6.07;;;11.50;99.90;;;;;;4973303;28;20208;-69
2024/01/27 08:24:30;;;;;;;9.23;6.07;;;12.00;99.90;;;;;;4972585;28;20184;-69
2024/01/27 08:26:55;;;;;;;12.37;5.80;;;12.90;99.90;;;;;;4973021;28;20240;-69
2024/01/27 08:29:21;;;;;;;8.13;5.73;;;13.70;97.40;;;;;;4973222;28;20173;-69
2024/01/27 08:31:46;;;;;;;8.07;5.50;;;14.60;93.50;;;;;;4973536;28;20663;-69
2024/01/27 08:34:14;;;;;;;7.87;5.60;;;15.30;90.80;;;;;;4959752;28;20177;-69
2024/01/27 08:36:40;;;;;;;7.93;7.13;;;15.80;85.50;;;;;;4953685;29;20196;-69
2024/01/27 08:39:07;;;;;;;7.43;6.60;;;16.30;78.80;;;;;;4954069;28;20435;-69
2024/01/27 08:41:33;;;;;;;14.77;6.90;;;16.50;73.40;;;;;;4959099;28;20176;-69
2024/01/27 08:43:58;;;;;;;10.20;7.47;;;16.60;72.10;;;;;;4973417;28;20428;-69
2024/01/27 08:46:24;;;;;;;8.70;6.50;;;16.90;68.10;;;;;;4973056;28;20574;-69
2024/01/27 08:48:49;;;;;;;7.13;6.33;;;17.20;64.70;;;;;;4973007;28;20208;-69
2024/01/27 08:51:16;;;;;;;9.00;8.00;;;17.00;63.00;;;;;;4959066;28;20208;-69
2024/01/27 08:53:48;;;;;;;6.80;6.10;;;16.50;64.50;;;;;;4953937;29;20220;-69
2024/01/27 08:56:19;;;;;;;10.33;7.53;;;15.80;66.50;;;;;;4953826;29;20471;-69
2024/01/27 08:58:47;;;;;;;6.80;5.93;;;15.90;67.50;;;;;;4953734;28;20454;-69
2024/01/27 09:01:14;;;;;;;7.67;5.17;;;16.60;64.40;;;;;;4953877;28;20420;-70
2024/01/27 09:03:40;;;;;;;6.50;5.90;;;16.20;62.30;;;;;;4953817;29;20459;-69
2024/01/27 09:06:07;;;;;;;7.10;5.20;;;14.70;68.30;;;;;;4953743;29;20506;-69
2024/01/27 09:08:34;;;;;;;8.07;5.97;;;15.10;70.80;;;;;;4981986;28;20208;-69
2024/01/27 09:11:00;;;;;;;6.73;5.33;;;16.20;67.40;;;;;;4953715;29;20425;-69
2024/01/27 09:13:26;;;;;;;7.53;6.07;;;16.90;62.60;;;;;;4953739;28;20416;-70
2024/01/27 09:15:52;;;;;;;8.97;6.90;;;17.20;61.00;;;;;;4953664;28;20534;-69
2024/01/27 09:18:17;;;;;;;5.80;5.20;;;17.40;59.30;;;;;;4960131;28;20506;-69
2024/01/27 09:20:43;;;;;;;7.20;5.00;;;17.40;59.30;;;;;;4972879;28;20168;-70
2024/01/27 09:23:08;;;;;;;7.27;4.73;;;18.20;56.80;;;;;;4972911;28;20176;-70
2024/01/27 09:25:34;;;;;;;5.93;4.20;;;18.50;55.50;;;;;;4956220;28;20261;-70
2024/01/27 09:28:03;;;;;;;9.07;5.17;;;18.90;54.60;;;;;;4953378;28;20197;-70
2024/01/27 09:30:28;;;;;;;5.43;4.63;;;19.70;51.10;;;;;;4953553;29;20252;-70
2024/01/27 09:32:54;;;;;;;6.87;5.03;;;19.50;50.30;;;;;;4953742;28;20548;-70
2024/01/27 09:35:20;;;;;;;6.37;4.77;;;19.60;49.60;;;;;;4953527;29;20212;-70
2024/01/27 09:37:46;;;;;;;10.10;4.60;;;18.30;50.40;;;;;;4953320;29;20171;-70
2024/01/27 09:40:12;;;;;;;9.53;5.60;;;18.60;51.60;;;;;;4953495;28;20572;-69
2024/01/27 09:42:41;;;;;;;9.57;5.13;;;19.90;49.00;;;;;;4957476;28;20220;-70
2024/01/27 09:45:08;;;;;;;8.73;5.07;;;19.80;47.90;;;;;;4957004;28;20193;-70
2024/01/27 09:47:35;;;;;;;7.83;4.93;;;19.10;49.00;;;;;;4956457;29;21015;-70
2024/01/27 09:50:00;;;;;;;9.00;4.30;;;18.90;49.80;;;;;;4956837;28;20933;-70
2024/01/27 09:52:26;;;;;;;11.70;6.50;;;19.70;47.20;;;;;;4956981;28;20423;-70
2024/01/27 09:54:52;;;;;;;16.47;7.23;;;19.50;45.90;;;;;;4956688;29;20200;-70
2024/01/27 09:57:20;;;;;;;7.47;4.90;;;19.00;48.00;;;;;;4956601;29;20215;-70
2024/01/27 09:59:47;;;;;;;6.40;5.07;;;20.50;46.20;;;;;;4957381;28;20173;-70
2024/01/27 10:02:15;;;;;;;6.87;4.37;;;21.20;43.80;;;;;;4956660;28;20421;-70
2024/01/27 10:04:42;;;;;;;6.30;4.27;;;21.90;42.60;;;;;;4956758;29;20428;-70
2024/01/27 10:07:08;;;;;;;7.17;4.00;;;21.60;43.20;;;;;;4956320;29;20428;-70
2024/01/27 10:09:33;;;;;;;8.47;4.90;;;22.10;42.10;;;;;;4956793;28;20432;-70
2024/01/27 10:12:01;;;;;;;9.80;3.20;;;23.00;39.00;;;;;;4956596;28;20195;-70
2024/01/27 10:14:37;;;;;;;5.87;3.53;;;23.10;37.40;;;;;;4956462;28;20165;-70
2024/01/27 10:17:03;;;;;;;8.83;3.30;;;22.80;35.80;;;;;;4956056;29;20427;-70
2024/01/27 10:19:28;;;;;;;6.43;4.20;;;22.20;36.80;;;;;;4972944;28;20507;-70
2024/01/27 10:22:02;;;;;;;4.63;3.10;;;22.70;36.00;;;;;;4975638;28;20172;-70
2024/01/27 10:24:27;;;;;;;7.33;2.90;;;22.50;36.30;;;;;;4975628;28;20739;-70
2024/01/27 10:26:59;;;;;;;6.30;3.57;;;21.90;35.40;;;;;;4975199;28;20491;-70
2024/01/27 10:29:25;;;;;;;7.40;3.70;;;20.40;37.20;;;;;;4974550;28;20195;-70
2024/01/27 10:31:50;;;;;;;4.83;4.17;;;20.50;38.40;;;;;;4973899;28;20428;-70
2024/01/27 10:34:20;;;;;;;8.53;3.23;;;21.80;37.40;;;;;;4974750;28;20181;-70
2024/01/27 10:36:46;;;;;;;6.87;3.60;;;22.70;36.00;;;;;;4974830;28;20368;-70
2024/01/27 10:39:20;;;;;;;9.53;4.07;;;22.80;35.60;;;;;;4975288;28;20451;-70
2024/01/27 10:41:46;;;;;;;7.13;3.77;;;21.10;36.50;;;;;;4975128;28;20266;-70
2024/01/27 10:44:19;;;;;;;5.30;3.47;;;21.20;37.90;;;;;;4975270;28;20408;-70
2024/01/27 10:46:47;;;;;;;5.47;3.63;;;22.70;36.20;;;;;;4974850;28;20457;-70
2024/01/27 10:49:14;;;;;;;5.90;3.57;;;23.40;35.70;;;;;;4969481;28;20972;-70
2024/01/27 10:52:01;;;;;;;5.70;3.40;;;23.70;34.40;;;;;;4955784;28;20420;-70
2024/01/27 10:54:27;;;;;;;6.53;3.60;;;21.40;35.90;;;;;;4974112;28;20474;-70
2024/01/27 10:56:58;;;;;;;5.40;3.20;;;22.30;35.70;;;;;;4974736;28;20415;-70
2024/01/27 10:59:27;;;;;;;6.37;4.50;;;22.10;34.70;;;;;;4975024;28;20501;-70
2024/01/27 11:01:54;;;;;;;6.63;4.10;;;20.90;36.70;;;;;;4974962;28;20470;-70
2024/01/27 11:04:20;;;;;;;4.77;3.20;;;21.70;35.60;;;;;;4974820;28;20408;-69
2024/01/27 11:06:48;;;;;;;6.53;3.50;;;21.60;34.70;;;;;;4964198;28;20439;-70
2024/01/27 11:09:14;;;;;;;6.20;4.10;;;20.90;35.80;;;;;;4955426;29;20466;-70
2024/01/27 11:11:42;;;;;;;6.60;3.90;;;19.80;37.20;;;;;;4955489;29;20509;-70
2024/01/27 11:14:09;;;;;;;15.13;4.70;;;19.90;37.60;;;;;;4955403;29;20427;-69
2024/01/27 11:16:35;;;;;;;7.13;4.57;;;19.30;38.20;;;;;;4954969;29;20448;-69
2024/01/27 11:19:02;;;;;;;8.70;4.30;;;19.50;38.50;;;;;;4955242;29;20472;-70
2024/01/27 11:21:27;;;;;;;8.00;4.70;;;19.90;38.70;;;;;;4955171;28;20779;-70
2024/01/27 11:23:53;;;;;;;5.97;4.50;;;20.00;37.80;;;;;;4956013;28;20437;-70
2024/01/27 11:26:23;;;;;;;8.00;4.73;;;18.90;39.10;;;;;;4954990;29;20262;-69
2024/01/27 11:28:49;;;;;;;7.73;3.93;;;20.20;39.10;;;;;;4956337;28;20714;-69
2024/01/27 11:31:18;;;;;;;5.47;4.70;;;21.50;37.20;;;;;;4974396;28;20454;-69
2024/01/27 11:33:47;;;;;;;8.03;5.97;;;21.00;36.30;;;;;;4974248;28;20792;-69
2024/01/27 11:36:23;;;;;;;5.33;4.83;;;19.60;38.00;;;;;;4973583;28;20502;-69
2024/01/27 11:38:50;;;;;;;6.53;4.63;;;19.30;38.40;;;;;;4972695;28;21000;-69
2024/01/27 11:41:29;;;;;;;5.03;4.33;;;18.60;39.30;;;;;;4972137;28;20502;-69
2024/01/27 11:43:56;;;;;;;10.00;5.00;;;19.00;39.40;;;;;;4974131;28;20427;-69
2024/01/27 11:46:22;;;;;;;13.63;4.20;;;19.90;38.50;;;;;;4973779;28;20443;-69
2024/01/27 11:48:48;;;;;;;8.80;5.07;;;21.50;37.20;;;;;;4973904;28;20466;-70
2024/01/27 11:51:15;;;;;;;6.70;3.93;;;23.40;34.00;;;;;;4974149;28;20440;-70
2024/01/27 11:53:41;;;;;;;10.43;5.00;;;23.90;33.10;;;;;;4974117;28;20415;-70
2024/01/27 11:56:07;;;;;;;7.43;5.13;;;25.60;32.00;;;;;;4974007;28;20844;-70
2024/01/27 11:58:33;;;;;;;5.87;4.43;;;25.30;30.10;;;;;;4968127;28;20226;-70
2024/01/27 12:01:00;;;;;;;5.30;3.80;;;24.90;30.60;;;;;;4974053;28;20588;-70
2024/01/27 12:03:26;;;;;;;5.93;5.30;;;24.90;30.40;;;;;;4973592;28;20427;-70
2024/01/27 12:05:52;;;;;;;8.03;5.50;;;24.10;30.10;;;;;;4973874;28;20810;-70
2024/01/27 12:08:17;;;;;;;6.07;4.37;;;24.20;30.80;;;;;;4973452;28;20627;-70
2024/01/27 12:10:43;;;;;;;6.90;4.93;;;25.10;30.00;;;;;;4973747;28;20172;-70
2024/01/27 12:13:09;;;;;;;6.73;4.30;;;24.30;30.00;;;;;;4973681;28;20260;-70
2024/01/27 12:15:35;;;;;;;8.13;4.97;;;23.40;30.70;;;;;;4957374;28;20259;-70
2024/01/27 12:18:01;;;;;;;8.70;4.67;;;21.60;32.00;;;;;;4954432;28;20177;-70
2024/01/27 12:20:26;;;;;;;7.40;5.10;;;21.10;33.20;;;;;;4954362;28;20653;-70
2024/01/27 12:23:07;;;;;;;8.53;4.90;;;21.90;31.60;;;;;;4954294;28;20568;-70
2024/01/27 12:25:34;;;;;;;6.30;4.90;;;23.30;31.00;;;;;;4954046;28;20682;-70
2024/01/27 12:28:03;;;;;;;9.97;4.93;;;25.00;29.70;;;;;;4953820;29;20961;-70
2024/01/27 12:30:29;;;;;;;6.73;5.03;;;24.60;29.30;;;;;;4954216;28;20905;-70
2024/01/27 12:32:54;;;;;;;6.10;4.20;;;21.90;31.30;;;;;;4985134;28;20424;-70
2024/01/27 12:35:20;;;;;;;6.67;4.90;;;21.80;30.80;;;;;;4966885;28;20690;-69
2024/01/27 12:37:46;;;;;;;7.13;5.33;;;20.30;32.60;;;;;;4973079;28;20179;-69
2024/01/27 12:40:22;;;;;;;5.10;4.57;;;20.20;34.00;;;;;;4973359;28;20180;-69
2024/01/27 12:42:48;;;;;;;9.27;6.60;;;21.20;32.50;;;;;;4972263;28;20498;-69
2024/01/27 12:45:14;;;;;;;8.57;5.73;;;21.30;32.60;;;;;;4972597;28;20467;-70
2024/01/27 12:47:40;;;;;;;8.17;5.93;;;23.00;31.90;;;;;;4965591;28;20467;-69